createdAt,value
2023-05-05T00:01:56.689Z,13.93
2023-05-05T00:04:25.161Z,11.15
2023-05-05T00:06:55.058Z,12.82
2023-05-05T00:09:23.681Z,11.55
2023-05-05T00:11:52.161Z,14.35
2023-05-05T00:14:20.618Z,15.93
2023-05-05T00:16:49.177Z,16.38
2023-05-05T00:19:17.699Z,10.35
2023-05-05T00:21:46.204Z,16.63
2023-05-05T00:24:15.653Z,14.25
2023-05-05T00:26:44.155Z,11.18
2023-05-05T00:29:12.566Z,15.10
2023-05-05T00:31:41.105Z,13.18
2023-05-05T00:34:09.580Z,9.85
2023-05-05T00:36:38.099Z,10.35
2023-05-05T00:39:06.535Z,10.45
2023-05-05T00:41:36.024Z,10.77
2023-05-05T00:44:04.601Z,13.65
2023-05-05T00:46:34.664Z,13.35
2023-05-05T00:49:03.228Z,12.98
2023-05-05T00:51:32.075Z,9.48
2023-05-05T00:54:00.522Z,9.80
2023-05-05T00:56:29.190Z,13.23
2023-05-05T00:58:59.250Z,11.88
2023-05-05T01:01:27.782Z,12.00
2023-05-05T01:03:56.794Z,16.13
2023-05-05T01:06:42.390Z,14.43
2023-05-05T01:09:24.049Z,12.77
2023-05-05T01:12:00.643Z,14.02
2023-05-05T01:14:39.657Z,13.48
2023-05-05T01:17:17.162Z,12.32
2023-05-05T01:20:03.158Z,16.48
2023-05-05T01:22:38.976Z,15.48
2023-05-05T01:25:36.785Z,11.95
2023-05-05T01:28:27.968Z,16.80
2023-05-05T01:31:13.835Z,14.30
2023-05-05T01:33:49.940Z,18.92
2023-05-05T01:36:32.664Z,12.77
2023-05-05T01:39:03.502Z,11.75
2023-05-05T01:41:41.098Z,16.45
2023-05-05T01:44:11.572Z,12.18
2023-05-05T01:46:39.966Z,13.02
2023-05-05T01:49:11.017Z,14.88
2023-05-05T01:51:40.953Z,17.85
2023-05-05T01:54:10.237Z,12.27
2023-05-05T01:56:41.680Z,13.73
2023-05-05T01:59:11.204Z,12.27
2023-05-05T02:01:44.691Z,13.70
2023-05-05T02:04:16.095Z,17.40
2023-05-05T02:06:45.581Z,12.80
2023-05-05T02:09:15.164Z,18.98
2023-05-05T02:11:43.989Z,16.90
2023-05-05T02:14:13.650Z,17.90
2023-05-05T02:16:43.493Z,17.75
2023-05-05T02:19:12.184Z,14.98
2023-05-05T02:21:42.322Z,12.52
2023-05-05T02:24:10.805Z,17.67
2023-05-05T02:26:41.218Z,14.75
2023-05-05T02:29:15.472Z,14.73
2023-05-05T02:31:48.562Z,14.93
2023-05-05T02:34:26.678Z,15.90
2023-05-05T02:36:59.308Z,14.48
2023-05-05T02:39:37.988Z,14.52
2023-05-05T02:42:17.246Z,15.27
2023-05-05T02:44:47.315Z,14.02
2023-05-05T02:47:16.690Z,13.70
2023-05-05T02:49:45.284Z,15.38
2023-05-05T02:52:14.887Z,12.40
2023-05-05T02:54:45.261Z,13.75
2023-05-05T02:57:21.048Z,11.13
2023-05-05T03:00:06.909Z,13.02
2023-05-05T03:02:45.301Z,14.55
2023-05-05T03:05:21.084Z,11.00
2023-05-05T03:07:56.296Z,17.50
2023-05-05T03:10:31.080Z,14.98
2023-05-05T03:13:04.527Z,14.85
2023-05-05T03:15:45.745Z,9.45
2023-05-05T03:18:17.762Z,12.20
2023-05-05T03:20:52.364Z,9.05
2023-05-05T03:23:23.004Z,10.40
2023-05-05T03:25:57.182Z,13.73
2023-05-05T03:28:38.934Z,15.30
2023-05-05T03:31:16.085Z,11.60
2023-05-05T03:33:44.917Z,11.30
2023-05-05T03:36:13.332Z,17.50
2023-05-05T03:38:43.141Z,8.75
2023-05-05T03:41:11.882Z,11.00
2023-05-05T03:43:41.402Z,12.65
2023-05-05T03:46:10.421Z,12.68
2023-05-05T03:48:39.048Z,14.60
2023-05-05T03:51:07.374Z,12.93
2023-05-05T03:53:36.604Z,16.10
2023-05-05T03:56:09.272Z,11.40
2023-05-05T03:58:37.837Z,14.35
2023-05-05T04:01:06.519Z,12.68
2023-05-05T04:03:35.140Z,12.25
2023-05-05T04:06:03.770Z,15.20
2023-05-05T04:08:33.790Z,13.18
2023-05-05T04:11:03.276Z,12.80
2023-05-05T04:13:34.666Z,13.48
2023-05-05T04:16:04.372Z,11.50
2023-05-05T04:18:33.134Z,12.30
2023-05-05T04:21:01.941Z,12.90
2023-05-05T04:23:30.660Z,13.00
2023-05-05T04:25:58.960Z,13.18
2023-05-05T04:28:28.596Z,9.82
2023-05-05T04:30:59.497Z,12.65
2023-05-05T04:33:28.148Z,13.00
2023-05-05T04:35:57.763Z,10.25
2023-05-05T04:38:26.388Z,10.63
2023-05-05T04:40:55.137Z,14.10
2023-05-05T04:43:24.006Z,10.02
2023-05-05T04:45:56.892Z,14.40
2023-05-05T04:48:29.769Z,9.18
2023-05-05T04:50:58.469Z,12.95
2023-05-05T04:53:26.959Z,15.50
2023-05-05T04:55:56.036Z,14.15
2023-05-05T04:58:24.447Z,19.52
2023-05-05T05:00:53.000Z,16.77
2023-05-05T05:03:22.678Z,19.00
2023-05-05T05:05:51.762Z,19.13
2023-05-05T05:08:20.344Z,17.08
2023-05-05T05:10:48.896Z,18.77
2023-05-05T05:13:17.411Z,19.10
2023-05-05T05:15:46.659Z,19.45
2023-05-05T05:18:15.084Z,18.60
2023-05-05T05:20:45.338Z,23.58
2023-05-05T05:23:14.341Z,23.67
2023-05-05T05:25:46.293Z,20.92
2023-05-05T05:28:18.011Z,23.10
2023-05-05T05:30:52.088Z,18.77
2023-05-05T05:33:20.984Z,20.08
2023-05-05T05:35:50.625Z,24.42
2023-05-05T05:38:21.216Z,27.20
2023-05-05T05:40:52.290Z,21.20
2023-05-05T05:43:21.307Z,24.77
2023-05-05T05:45:49.853Z,16.10
2023-05-05T05:48:18.440Z,20.83
2023-05-05T05:50:46.854Z,17.27
2023-05-05T05:53:17.053Z,14.35
2023-05-05T05:55:47.309Z,15.80
2023-05-05T05:58:17.164Z,16.70
2023-05-05T06:00:46.095Z,15.38
2023-05-05T06:03:14.812Z,14.13
2023-05-05T06:05:43.686Z,15.65
2023-05-05T06:08:12.456Z,12.88
2023-05-05T06:10:48.210Z,15.25
2023-05-05T06:13:19.968Z,16.83
2023-05-05T06:15:51.111Z,15.30
2023-05-05T06:18:20.384Z,15.45
2023-05-05T06:20:51.081Z,17.60
2023-05-05T06:23:21.035Z,13.82
2023-05-05T06:25:56.195Z,17.75
2023-05-05T06:28:24.750Z,14.15
2023-05-05T06:30:53.266Z,12.43
2023-05-05T06:33:21.829Z,14.00
2023-05-05T06:35:50.277Z,13.70
2023-05-05T06:38:18.845Z,12.63
2023-05-05T06:40:49.164Z,13.15
2023-05-05T06:43:18.896Z,16.33
2023-05-05T06:45:54.439Z,13.75
2023-05-05T06:48:22.554Z,13.77
2023-05-05T06:50:50.988Z,15.05
2023-05-05T06:53:19.283Z,15.57
2023-05-05T06:55:48.624Z,13.52
2023-05-05T06:58:17.126Z,17.23
2023-05-05T07:00:46.738Z,12.48
2023-05-05T07:03:15.470Z,12.27
2023-05-05T07:05:43.989Z,12.07
2023-05-05T07:08:12.568Z,11.27
2023-05-05T07:10:41.044Z,11.60
2023-05-05T07:13:09.291Z,13.07
2023-05-05T07:15:37.848Z,9.13
2023-05-05T07:18:07.558Z,9.38
2023-05-05T07:20:36.038Z,10.98
2023-05-05T07:23:04.597Z,8.85
2023-05-05T07:25:33.115Z,10.50
2023-05-05T07:28:01.764Z,12.90
2023-05-05T07:30:30.053Z,10.45
2023-05-05T07:32:58.605Z,10.82
2023-05-05T07:35:28.977Z,8.73
2023-05-05T07:37:57.566Z,8.20
2023-05-05T07:40:26.103Z,7.10
2023-05-05T07:42:54.619Z,9.75
2023-05-05T07:45:23.078Z,10.73
2023-05-05T07:47:51.733Z,14.48
2023-05-05T07:50:20.571Z,7.97
2023-05-05T07:52:56.353Z,7.70
2023-05-05T07:55:34.613Z,9.40
2023-05-05T07:58:03.846Z,12.60
2023-05-05T08:00:32.494Z,8.48
2023-05-05T08:03:00.714Z,8.52
2023-05-05T08:05:29.396Z,6.85
2023-05-05T08:07:58.880Z,11.60
2023-05-05T08:10:27.395Z,8.77
2023-05-05T08:12:55.856Z,12.40
2023-05-05T08:15:24.059Z,13.75
2023-05-05T08:17:53.414Z,8.68
2023-05-05T08:20:22.178Z,9.18
2023-05-05T08:22:51.662Z,8.80
2023-05-05T08:25:21.411Z,9.75
2023-05-05T08:27:53.598Z,12.40
2023-05-05T08:30:22.396Z,12.35
2023-05-05T08:32:50.833Z,9.70
2023-05-05T08:35:19.455Z,10.02
2023-05-05T08:37:47.886Z,10.88
2023-05-05T08:40:16.674Z,12.05
2023-05-05T08:42:46.672Z,9.10
2023-05-05T08:45:15.206Z,10.27
2023-05-05T08:47:44.174Z,8.02
2023-05-05T08:50:13.227Z,8.80
2023-05-05T08:52:44.355Z,8.52
2023-05-05T08:55:19.269Z,8.10
2023-05-05T08:57:52.956Z,12.77
2023-05-05T09:00:22.036Z,8.25
2023-05-05T09:02:50.832Z,8.38
2023-05-05T09:05:19.360Z,9.23
2023-05-05T09:07:48.090Z,13.77
2023-05-05T09:10:16.348Z,8.82
2023-05-05T09:12:44.930Z,9.82
2023-05-05T09:15:15.907Z,11.20
2023-05-05T09:17:44.180Z,8.05
2023-05-05T09:20:14.070Z,12.25
2023-05-05T09:22:43.525Z,7.88
2023-05-05T09:25:13.335Z,9.50
2023-05-05T09:27:43.155Z,9.55
2023-05-05T09:30:16.019Z,7.00
2023-05-05T09:32:49.369Z,7.53
2023-05-05T09:35:18.475Z,13.85
2023-05-05T09:37:46.988Z,10.15
2023-05-05T09:40:16.963Z,8.60
2023-05-05T09:42:45.552Z,6.60
2023-05-05T09:45:30.037Z,8.73
2023-05-05T09:48:00.303Z,11.88
2023-05-05T09:50:30.948Z,6.05
2023-05-05T09:53:01.008Z,9.20
2023-05-05T09:55:30.884Z,8.88
2023-05-05T09:57:59.543Z,6.18
2023-05-05T10:00:40.284Z,8.68
2023-05-05T10:03:08.848Z,7.75
2023-05-05T10:05:48.993Z,8.93
2023-05-05T10:08:18.535Z,9.27
2023-05-05T10:10:53.563Z,6.70
2023-05-05T10:13:23.350Z,11.75
2023-05-05T10:15:54.784Z,9.32
2023-05-05T10:18:24.494Z,8.35
2023-05-05T10:20:58.507Z,7.28
2023-05-05T10:23:32.256Z,12.43
2023-05-05T10:26:03.756Z,10.20
2023-05-05T10:28:35.026Z,6.50
2023-05-05T10:31:24.238Z,7.68
2023-05-05T10:33:56.414Z,8.75
2023-05-05T10:36:26.657Z,7.68
2023-05-05T10:38:57.879Z,10.23
2023-05-05T10:41:27.013Z,9.65
2023-05-05T10:43:57.740Z,9.73
2023-05-05T10:46:28.648Z,9.80
2023-05-05T10:49:05.996Z,7.35
2023-05-05T10:51:42.519Z,7.43
2023-05-05T10:54:18.213Z,6.38
2023-05-05T10:56:48.111Z,5.57
2023-05-05T10:59:49.307Z,6.07
2023-05-05T11:02:28.784Z,9.60
2023-05-05T11:05:22.648Z,4.63
2023-05-05T11:07:52.362Z,9.60
2023-05-05T11:10:23.089Z,10.18
2023-05-05T11:13:27.292Z,4.22
2023-05-05T11:15:56.060Z,6.40
2023-05-05T11:18:35.873Z,8.63
2023-05-05T11:21:17.928Z,6.18
2023-05-05T11:23:50.636Z,4.95
2023-05-05T11:26:39.857Z,6.47
2023-05-05T11:29:08.481Z,4.13
2023-05-05T11:31:36.652Z,6.85
2023-05-05T11:34:31.225Z,9.82
2023-05-05T11:37:02.761Z,5.30
2023-05-05T11:39:42.235Z,5.93
2023-05-05T11:42:25.665Z,5.18
2023-05-05T11:44:54.692Z,12.20
2023-05-05T11:47:33.253Z,5.07
2023-05-05T11:50:23.082Z,9.90
2023-05-05T11:52:51.433Z,9.13
2023-05-05T11:55:23.549Z,3.67
2023-05-05T11:57:52.087Z,6.63
2023-05-05T12:00:20.892Z,6.38
2023-05-05T12:02:58.002Z,7.97
2023-05-05T12:05:27.999Z,4.15
2023-05-05T12:07:59.808Z,8.98
2023-05-05T12:10:28.840Z,4.50
2023-05-05T12:12:57.016Z,14.32
2023-05-05T12:15:32.486Z,5.50
2023-05-05T12:18:02.982Z,10.15
2023-05-05T12:20:33.799Z,9.07
2023-05-05T12:23:05.223Z,4.80
2023-05-05T12:25:38.365Z,6.55
2023-05-05T12:28:08.373Z,5.85
2023-05-05T12:30:36.986Z,5.50
2023-05-05T12:33:06.850Z,5.72
2023-05-05T12:35:37.058Z,6.07
2023-05-05T12:38:05.853Z,4.07
2023-05-05T12:40:48.518Z,6.70
2023-05-05T12:43:27.823Z,5.70
2023-05-05T12:46:07.784Z,8.68
2023-05-05T12:48:37.998Z,9.52
2023-05-05T12:51:18.819Z,4.55
2023-05-05T12:53:47.626Z,6.18
2023-05-05T12:56:35.869Z,5.88
2023-05-05T12:59:05.415Z,5.63
2023-05-05T13:01:34.117Z,5.35
2023-05-05T13:04:10.882Z,7.03
2023-05-05T13:06:41.711Z,5.47
2023-05-05T13:09:11.068Z,5.25
2023-05-05T13:11:40.086Z,6.22
2023-05-05T13:14:09.211Z,8.82
2023-05-05T13:16:37.426Z,5.85
2023-05-05T13:19:05.689Z,5.00
2023-05-05T13:21:34.227Z,6.43
2023-05-05T13:24:21.361Z,6.15
2023-05-05T13:26:52.099Z,4.40
2023-05-05T13:29:20.240Z,8.25
2023-05-05T13:31:48.394Z,5.63
2023-05-05T13:34:16.603Z,6.18
2023-05-05T13:36:44.883Z,9.73
2023-05-05T13:39:14.392Z,4.90
2023-05-05T13:41:44.798Z,5.50
2023-05-05T13:44:13.686Z,7.53
2023-05-05T13:46:42.583Z,11.65
2023-05-05T13:49:11.267Z,4.90
2023-05-05T13:51:39.444Z,7.75
2023-05-05T13:54:07.993Z,6.57
2023-05-05T13:56:37.882Z,4.55
2023-05-05T13:59:06.300Z,5.60
2023-05-05T14:01:34.881Z,9.35
2023-05-05T14:04:05.458Z,6.85
2023-05-05T14:06:35.622Z,5.97
2023-05-05T14:09:05.939Z,3.78
2023-05-05T14:11:34.486Z,6.00
2023-05-05T14:14:03.938Z,4.50
2023-05-05T14:16:32.549Z,6.78
2023-05-05T14:19:00.657Z,5.78
2023-05-05T14:21:28.853Z,8.25
2023-05-05T14:23:57.006Z,4.60
2023-05-05T14:26:25.645Z,7.78
2023-05-05T14:28:53.859Z,5.82
2023-05-05T14:31:23.513Z,3.65
2023-05-05T14:33:53.450Z,3.95
2023-05-05T14:36:21.644Z,7.85
2023-05-05T14:38:50.156Z,4.35
2023-05-05T14:41:18.356Z,7.75
2023-05-05T14:43:46.382Z,6.07
2023-05-05T14:46:14.804Z,3.60
2023-05-05T14:48:44.288Z,3.40
2023-05-05T14:51:12.778Z,7.25
2023-05-05T14:53:40.891Z,3.97
2023-05-05T14:56:09.182Z,5.57
2023-05-05T14:58:37.577Z,6.85
2023-05-05T15:01:05.989Z,4.13
2023-05-05T15:03:34.324Z,3.08
2023-05-05T15:06:04.791Z,3.38
2023-05-05T15:08:32.996Z,3.28
2023-05-05T15:11:01.513Z,5.28
2023-05-05T15:13:30.174Z,6.90
2023-05-05T15:15:58.838Z,4.63
2023-05-05T15:18:26.897Z,6.78
2023-05-05T15:20:55.107Z,5.20
2023-05-05T15:23:24.656Z,8.43
2023-05-05T15:25:53.232Z,5.13
2023-05-05T15:28:21.668Z,4.25
2023-05-05T15:30:49.834Z,4.47
2023-05-05T15:33:18.193Z,7.75
2023-05-05T15:35:46.892Z,8.18
2023-05-05T15:38:15.426Z,6.32
2023-05-05T15:40:47.696Z,4.75
2023-05-05T15:43:17.311Z,6.72
2023-05-05T15:45:45.990Z,7.47
2023-05-05T15:48:14.615Z,8.50
2023-05-05T15:50:43.036Z,12.38
2023-05-05T15:53:11.420Z,4.70
2023-05-05T15:55:40.286Z,4.50
2023-05-05T15:58:09.951Z,6.13
2023-05-05T16:00:38.575Z,4.60
2023-05-05T16:03:07.150Z,3.78
2023-05-05T16:05:35.686Z,4.28
2023-05-05T16:08:09.687Z,4.90
2023-05-05T16:10:38.436Z,5.68
2023-05-05T16:13:07.137Z,3.90
2023-05-05T16:15:37.272Z,3.50
2023-05-05T16:18:06.664Z,4.15
2023-05-05T16:20:34.970Z,3.13
2023-05-05T16:23:03.471Z,3.38
2023-05-05T16:25:31.730Z,5.68
2023-05-05T16:28:01.671Z,3.97
2023-05-05T16:30:30.376Z,3.70
2023-05-05T16:32:59.982Z,4.32
2023-05-05T16:35:28.487Z,5.93
2023-05-05T16:37:57.026Z,3.50
2023-05-05T16:40:25.952Z,7.78
2023-05-05T16:42:54.391Z,3.20
2023-05-05T16:45:24.446Z,8.98
2023-05-05T16:47:54.703Z,3.85
2023-05-05T16:50:24.733Z,7.15
2023-05-05T16:52:53.261Z,4.47
2023-05-05T16:55:22.466Z,4.80
2023-05-05T16:57:50.965Z,4.18
2023-05-05T17:00:19.584Z,7.00
2023-05-05T17:02:48.454Z,2.83
2023-05-05T17:05:17.653Z,5.03
2023-05-05T17:07:48.289Z,5.03
2023-05-05T17:10:16.860Z,5.25
2023-05-05T17:12:45.355Z,4.40
2023-05-05T17:15:13.886Z,5.63
2023-05-05T17:17:43.201Z,6.15
2023-05-05T17:20:12.690Z,8.07
2023-05-05T17:22:41.166Z,2.92
2023-05-05T17:25:11.569Z,7.85
2023-05-05T17:27:40.377Z,5.05
2023-05-05T17:30:10.005Z,3.72
2023-05-05T17:32:38.842Z,3.40
2023-05-05T17:35:08.277Z,5.05
2023-05-05T17:37:37.141Z,10.07
2023-05-05T17:40:06.092Z,2.63
2023-05-05T17:42:35.964Z,4.18
2023-05-05T17:45:04.834Z,6.22
2023-05-05T17:47:33.337Z,6.03
2023-05-05T17:50:02.205Z,5.15
2023-05-05T17:52:30.651Z,6.82
2023-05-05T17:54:59.245Z,3.28
2023-05-05T17:57:27.625Z,5.45
2023-05-05T17:59:57.126Z,3.95
2023-05-05T18:02:25.949Z,9.52
2023-05-05T18:04:54.469Z,5.28
2023-05-05T18:07:22.854Z,6.47
2023-05-05T18:09:51.997Z,4.30
2023-05-05T18:12:20.483Z,4.95
2023-05-05T18:14:49.026Z,6.38
2023-05-05T18:17:18.540Z,6.05
2023-05-05T18:19:49.126Z,5.68
2023-05-05T18:22:18.140Z,5.80
2023-05-05T18:24:47.513Z,7.78
2023-05-05T18:27:16.072Z,4.78
2023-05-05T18:29:44.493Z,5.82
2023-05-05T18:32:13.009Z,8.52
2023-05-05T18:34:43.860Z,6.25
2023-05-05T18:37:12.594Z,5.80
2023-05-05T18:39:43.823Z,5.13
2023-05-05T18:42:13.813Z,5.50
2023-05-05T18:44:42.838Z,9.77
2023-05-05T18:47:11.392Z,6.63
2023-05-05T18:49:41.995Z,9.73
2023-05-05T18:52:13.580Z,11.10
2023-05-05T18:54:42.148Z,11.60
2023-05-05T18:57:10.552Z,13.07
2023-05-05T18:59:40.632Z,7.05
2023-05-05T19:02:09.135Z,9.80
2023-05-05T19:04:38.185Z,12.48
2023-05-05T19:07:07.029Z,11.20
2023-05-05T19:09:37.230Z,11.82
2023-05-05T19:12:05.863Z,12.07
2023-05-05T19:14:38.598Z,9.55
2023-05-05T19:17:07.248Z,8.48
2023-05-05T19:19:35.573Z,6.88
2023-05-05T19:22:04.240Z,7.72
2023-05-05T19:24:32.744Z,9.50
2023-05-05T19:27:02.911Z,9.05
2023-05-05T19:29:32.285Z,7.85
2023-05-05T19:32:00.877Z,10.40
2023-05-05T19:34:29.252Z,8.13
2023-05-05T19:36:57.766Z,7.88
2023-05-05T19:39:26.313Z,10.60
2023-05-05T19:41:54.785Z,10.30
2023-05-05T19:44:24.437Z,7.82
2023-05-05T19:46:53.944Z,7.97
2023-05-05T19:49:22.439Z,10.23
2023-05-05T19:51:52.141Z,9.77
2023-05-05T19:54:20.723Z,13.25
2023-05-05T19:56:49.114Z,10.20
2023-05-05T19:59:17.569Z,9.00
2023-05-05T20:01:47.189Z,9.70
2023-05-05T20:04:15.684Z,10.50
2023-05-05T20:06:44.175Z,13.18
2023-05-05T20:09:12.550Z,12.25
2023-05-05T20:11:43.945Z,11.05
2023-05-05T20:14:13.638Z,8.93
2023-05-05T20:16:44.572Z,10.20
2023-05-05T20:19:14.114Z,8.25
2023-05-05T20:21:44.882Z,11.95
2023-05-05T20:24:13.384Z,14.63
2023-05-05T20:26:42.014Z,9.77
2023-05-05T20:29:14.704Z,7.15
2023-05-05T20:31:43.270Z,10.48
2023-05-05T20:34:11.891Z,8.88
2023-05-05T20:36:45.484Z,8.55
2023-05-05T20:39:16.463Z,12.45
2023-05-05T20:41:49.751Z,9.18
2023-05-05T20:44:18.333Z,10.25
2023-05-05T20:46:49.921Z,9.43
2023-05-05T20:49:19.815Z,10.32
2023-05-05T20:51:49.324Z,11.80
2023-05-05T20:54:17.912Z,12.95
2023-05-05T20:56:46.433Z,10.88
2023-05-05T20:59:14.966Z,10.70
2023-05-05T21:01:44.082Z,10.98
2023-05-05T21:04:12.630Z,10.13
2023-05-05T21:06:41.374Z,11.98
2023-05-05T21:09:10.997Z,8.70
2023-05-05T21:11:39.652Z,14.63
2023-05-05T21:14:08.134Z,11.50
2023-05-05T21:16:36.566Z,13.85
2023-05-05T21:19:05.169Z,11.65
2023-05-05T21:21:33.551Z,10.38
2023-05-05T21:24:02.133Z,12.10
2023-05-05T21:26:31.616Z,10.77
2023-05-05T21:29:00.125Z,14.40
2023-05-05T21:31:28.536Z,13.82
2023-05-05T21:33:57.058Z,11.52
2023-05-05T21:36:25.476Z,16.27
2023-05-05T21:38:55.500Z,13.60
2023-05-05T21:41:24.578Z,19.58
2023-05-05T21:43:54.130Z,13.13
2023-05-05T21:46:22.693Z,14.80
2023-05-05T21:48:51.334Z,11.00
2023-05-05T21:51:19.872Z,11.27
2023-05-05T21:53:48.314Z,14.27
2023-05-05T21:56:16.771Z,10.43
2023-05-05T21:58:45.357Z,14.00
2023-05-05T22:01:15.177Z,13.05
2023-05-05T22:03:44.027Z,13.10
2023-05-05T22:06:12.620Z,11.88
2023-05-05T22:08:41.166Z,11.13
2023-05-05T22:11:09.586Z,12.18
2023-05-05T22:13:38.995Z,13.27
2023-05-05T22:16:07.815Z,9.18
2023-05-05T22:18:37.708Z,11.88
2023-05-05T22:21:06.235Z,13.65
2023-05-05T22:23:34.701Z,9.98
2023-05-05T22:26:03.414Z,9.75
2023-05-05T22:28:31.961Z,10.55
2023-05-05T22:31:00.400Z,11.65
2023-05-05T22:33:29.370Z,12.27
2023-05-05T22:35:58.769Z,11.77
2023-05-05T22:38:27.230Z,11.00
2023-05-05T22:40:55.771Z,12.88
2023-05-05T22:43:24.224Z,12.82
2023-05-05T22:45:52.700Z,13.07
2023-05-05T22:48:21.642Z,9.70
2023-05-05T22:50:50.074Z,13.20
2023-05-05T22:53:19.585Z,11.00
2023-05-05T22:55:48.061Z,8.93
2023-05-05T22:58:16.486Z,15.67
2023-05-05T23:00:44.892Z,12.63
2023-05-05T23:03:13.660Z,9.57
2023-05-05T23:05:42.057Z,11.20
2023-05-05T23:08:10.537Z,11.30
2023-05-05T23:10:40.370Z,8.70
2023-05-05T23:13:08.906Z,13.50
2023-05-05T23:15:37.345Z,10.27
2023-05-05T23:18:06.082Z,12.33
2023-05-05T23:20:34.539Z,12.27
2023-05-05T23:23:03.011Z,9.13
2023-05-05T23:25:31.551Z,11.10
2023-05-05T23:28:01.124Z,11.17
2023-05-05T23:30:29.587Z,9.90
2023-05-05T23:32:58.604Z,10.70
2023-05-05T23:35:27.293Z,9.43
2023-05-05T23:37:55.772Z,11.30
2023-05-05T23:40:24.294Z,12.77
2023-05-05T23:42:52.754Z,12.18
2023-05-05T23:45:22.260Z,11.87
2023-05-05T23:47:50.812Z,16.17
2023-05-05T23:50:19.254Z,10.20
2023-05-05T23:52:47.769Z,12.80
2023-05-05T23:55:16.223Z,8.67
2023-05-05T23:57:44.766Z,10.63
